Latest Weather Observations for West Wyalong

IDN60801

Issued at 11:32 am EST Tuesday 28 April 2015 (issued every 30 minutes, with the page automatically refreshed every 10 minutes)

About weather observations | Map of weather stations | Latest weather observations for NSW | Other Formats
Station Details ID: 050017 Name: WEST WYALONG AIRPORT AWS Lat: -33.94 Lon: 147.20 Height: 257.0 m
Data from the previous 72 hours. | See also: Recent months for locations in New South Wales
Date/Time
EST
Temp
°C
App
Temp
°C
Dew
Point
Rel
Hum
%
Delta-T
°C
Wind Press
QNH
hPa
Press
MSL
hPa
Rain
since 9 am
mm
Dir
 
Spd
km/h
Gust
km/h
Spd
kts
Gust
kts
28/11:30am 16.0 11.9 4.1 45 5.6 N 15 20 8 11 1026.3 1025.8 0.0
28/11:00am 15.2 12.5 5.7 53 4.6 NNW 9 15 5 8 1026.7 1026.2 0.0
28/10:30am 14.0 11.9 5.9 58 3.9 ENE 6 9 3 5 1026.8 1026.3 0.0
28/10:00am 13.2 11.4 7.0 66 3.0 SE 6 9 3 5 1027.0 1026.6 0.0
28/09:30am 12.1 9.6 6.6 69 2.7 ESE 9 13 5 7 1026.9 1026.4 0.0
28/09:00am 11.1 8.6 6.5 73 2.2 SSE 9 13 5 7 1026.8 1026.3 0.0
28/08:30am 9.9 8.0 7.5 85 1.2 SSW 7 7 4 4 1026.7 1026.2 0.0
28/08:00am 7.6 6.4 6.4 92 0.6 WSW 2 7 1 4 1026.4 1025.9 0.0
28/07:30am 5.8 4.8 5.7 99 0.0 CALM 0 0 0 0 1026.1 1025.6 0.0
28/07:00am 2.9 0.2 2.8 99 0.0 WSW 6 7 3 4 1025.9 1025.4 0.0
28/06:30am 2.6 0.9 1.9 95 0.3 CALM 0 2 0 1 1025.5 1025.0 0.0
28/06:00am 3.0 1.4 2.3 95 0.3 CALM 0 0 0 0 1025.0 1024.6 0.0
28/05:30am 3.6 1.9 2.1 90 0.6 CALM 0 0 0 0 1024.7 1024.3 0.0
28/05:00am 4.8 3.2 2.7 86 0.9 CALM 0 0 0 0 1024.4 1024.0 0.0
28/04:30am 6.2 3.2 4.0 86 1.0 WSW 9 11 5 6 1024.3 1023.9 0.0
28/04:00am 6.2 3.6 4.0 86 0.9 WSW 7 11 4 6 1024.1 1023.7 0.0
28/03:30am 5.5 2.4 3.5 87 0.8 WSW 9 11 5 6 1024.0 1023.6 0.0
28/03:00am 4.5 1.3 3.0 90 0.6 WSW 9 9 5 5 1024.1 1023.7 0.0
28/02:30am 4.3 1.4 2.7 89 0.7 WSW 7 7 4 4 1024.1 1023.7 0.0
28/02:00am 4.8 2.1 2.7 86 0.9 W 6 7 3 4 1024.2 1023.8 0.0
28/01:30am 5.3 2.4 2.8 84 1.0 WSW 7 9 4 5 1024.2 1023.8 0.0
28/01:00am 6.0 3.4 3.0 81 1.3 WSW 6 7 3 4 1024.2 1023.8 0.0
28/12:30am 7.4 4.6 3.3 75 1.8 WSW 7 7 4 4 1024.2 1023.8 0.0
28/12:00am 8.3 5.3 3.9 74 1.9 SW 9 11 5 6 1024.2 1023.8 0.0
 
Date/Time
EST
Temp
°C
App
Temp
°C
Dew
Point
Rel
Hum
%
Delta-T
°C
Wind Press
QNH
hPa
Press
MSL
hPa
Rain
since 9 am
mm
Dir
 
Spd
km/h
Gust
km/h
Spd
kts
Gust
kts
27/11:30pm 8.2 5.3 4.4 77 1.7 SW 9 11 5 6 1024.3 1023.9 0.0
27/11:00pm 8.0 5.1 4.8 80 1.4 SW 9 11 5 6 1024.4 1024.0 0.0
27/10:30pm 8.4 5.1 4.8 78 1.6 SSW 11 13 6 7 1024.5 1024.1 0.0
27/10:00pm 9.0 6.1 4.8 75 1.9 SSW 9 13 5 7 1024.4 1024.0 0.0
27/09:30pm 9.0 6.1 4.8 75 1.9 SSW 9 13 5 7 1024.3 1023.9 0.0
27/09:00pm 9.8 6.6 5.0 72 2.2 SW 11 11 6 6 1024.2 1023.8 0.0
27/08:30pm 10.3 7.4 4.9 69 2.5 SW 9 11 5 6 1024.0 1023.6 0.0
27/08:00pm 10.8 7.5 4.7 66 2.8 SW 11 11 6 6 1023.7 1023.3 0.0
27/07:30pm 11.9 8.7 4.9 62 3.2 SW 11 11 6 6 1023.4 1022.9 0.0
27/07:00pm 12.9 9.3 4.8 58 3.8 SW 13 15 7 8 1023.0 1022.5 0.0
27/06:30pm 13.9 10.3 4.8 54 4.3 SW 13 17 7 9 1022.8 1022.3 0.0
27/06:00pm 14.0 11.1 4.9 54 4.3 SW 9 13 5 7 1022.5 1022.0 0.0
27/05:30pm 14.2 11.0 5.0 54 4.4 SW 11 15 6 8 1022.3 1021.8 0.0
27/05:00pm 14.6 10.1 4.3 50 4.8 SW 17 24 9 13 1022.0 1021.5 0.0
27/04:30pm 15.3 10.9 4.7 49 5.0 SW 17 22 9 12 1021.9 1021.4 0.0
27/04:00pm 15.5 11.1 4.5 48 5.2 SSW 17 24 9 13 1021.7 1021.2 0.0
27/03:30pm 15.9 10.9 4.6 47 5.4 SW 20 28 11 15 1021.5 1021.0 0.0
27/03:00pm 17.0 11.7 5.0 45 5.8 WSW 22 28 12 15 1021.5 1021.0 0.0
27/02:30pm 15.1 10.2 4.2 48 5.1 SSW 19 26 10 14 1021.5 1021.0 0.0
27/02:00pm 15.9 11.0 4.9 48 5.2 SW 20 30 11 16 1021.5 1021.0 0.0
27/01:30pm 15.1 11.2 5.3 52 4.7 SSW 15 24 8 13 1021.5 1021.0 0.0
27/01:00pm 15.6 11.7 5.2 50 5.0 SW 15 24 8 13 1021.7 1021.2 0.0
27/12:30pm 15.7 11.1 6.4 54 4.6 SW 20 26 11 14 1022.2 1021.7 0.0
27/12:00pm 14.4 9.6 5.7 56 4.2 SW 20 32 11 17 1022.5 1022.0 0.0
27/11:30am 14.6 9.7 6.9 60 3.8 SSW 22 33 12 18 1022.7 1022.2 0.0
27/11:00am 13.9 9.3 6.3 60 3.7 SSW 20 28 11 15 1022.9 1022.4 0.0
27/10:30am 13.1 7.3 6.2 63 3.3 SSW 26 32 14 17 1023.0 1022.5 0.0
27/10:00am 12.3 7.3 6.4 67 2.8 SSW 22 32 12 17 1023.1 1022.6 0.0
27/09:30am 11.5 6.0 6.0 69 2.6 SSW 24 32 13 17 1023.0 1022.5 0.0
27/09:00am 10.9 5.4 6.1 72 2.3 SSW 24 35 13 19 1022.8 1022.3 0.0
27/08:30am 9.9 5.4 5.9 76 1.9 SSW 19 30 10 16 1022.6 1022.1 0.0
27/08:00am 7.8 3.4 4.9 82 1.3 SW 17 22 9 12 1022.3 1021.8 0.0
27/07:30am 6.7 2.3 4.5 86 1.0 SW 17 22 9 12 1022.1 1021.6 0.0
27/07:00am 5.7 1.2 4.2 90 0.6 SW 17 22 9 12 1021.7 1021.2 0.0
27/06:30am 6.0 1.1 4.3 89 0.7 WSW 19 24 10 13 1021.3 1020.8 0.0
27/06:00am 6.1 1.7 4.6 90 0.7 WSW 17 22 9 12 1021.0 1020.6 0.0
27/05:30am 5.9 1.8 4.2 89 0.7 SW 15 17 8 9 1020.8 1020.4 0.0
27/05:00am 6.6 2.5 4.4 86 1.0 WSW 15 19 8 10 1020.6 1020.2 0.0
27/04:30am 6.7 3.0 4.5 86 1.0 WSW 13 17 7 9 1020.4 1020.0 0.0
27/04:00am 7.3 2.5 4.8 84 1.1 WSW 19 24 10 13 1020.0 1019.5 0.0
27/03:30am 7.1 3.1 4.8 85 1.0 WSW 15 20 8 11 1020.0 1019.5 0.0
27/03:00am 7.9 3.5 5.0 82 1.3 WSW 17 20 9 11 1020.0 1019.5 0.0
27/02:30am 8.1 4.1 4.9 80 1.4 WSW 15 19 8 10 1020.0 1019.5 0.0
27/02:00am 8.7 4.3 4.7 76 1.8 WSW 17 22 9 12 1020.0 1019.5 0.0
27/01:30am 9.2 4.8 4.8 74 2.0 WSW 17 24 9 13 1020.0 1019.5 0.0
27/01:00am 9.0 5.0 4.8 75 1.9 WSW 15 19 8 10 1020.0 1019.5 0.0
27/12:30am 9.1 5.9 4.9 75 1.9 WSW 11 15 6 8 1020.0 1019.5 0.0
27/12:00am 9.6 6.1 5.4 75 1.9 W 13 17 7 9 1020.0 1019.5 0.0
 
Date/Time
EST
Temp
°C
App
Temp
°C
Dew
Point
Rel
Hum
%
Delta-T
°C
Wind Press
QNH
hPa
Press
MSL
hPa
Rain
since 9 am
mm
Dir
 
Spd
km/h
Gust
km/h
Spd
kts
Gust
kts
26/11:30pm 9.7 5.8 5.5 75 1.9 W 15 19 8 10 1020.2 1019.8 0.0
26/11:00pm 10.2 6.0 5.6 73 2.1 WSW 17 20 9 11 1020.3 1019.9 0.0
26/10:30pm 10.5 6.3 5.9 73 2.2 WSW 17 19 9 10 1020.4 1020.0 0.0
26/10:00pm 11.0 7.2 5.7 70 2.5 WSW 15 19 8 10 1020.3 1019.9 0.0
26/09:30pm 11.5 7.7 5.8 68 2.7 WSW 15 20 8 11 1020.2 1019.8 0.0
26/09:00pm 12.1 7.9 5.7 65 3.0 SW 17 24 9 13 1020.2 1019.8 0.0
26/08:30pm 13.3 8.7 5.7 60 3.6 SW 19 28 10 15 1019.9 1019.4 0.0
26/08:00pm 13.5 8.8 5.9 60 3.6 SW 20 26 11 14 1019.6 1019.1 0.0
26/07:30pm 13.2 9.5 6.3 63 3.3 WSW 15 19 8 10 1019.3 1018.8 0.0
26/07:00pm 13.0 8.2 5.7 61 3.5 SW 20 28 11 15 1019.0 1018.5 0.0
26/06:30pm 13.7 8.6 5.8 59 3.8 WSW 22 30 12 16 1018.6 1018.1 0.0
26/06:00pm 14.1 9.5 6.5 60 3.7 WSW 20 28 11 15 1018.0 1017.5 0.0
26/05:30pm 14.5 10.0 6.8 60 3.8 SW 20 32 11 17 1017.7 1017.2 0.0
26/05:00pm 15.5 10.1 6.5 55 4.4 WSW 24 32 13 17 1017.4 1016.9 0.0
26/04:30pm 16.1 10.9 7.1 55 4.5 SW 24 33 13 18 1017.2 1016.7 0.0
26/04:00pm 15.8 9.9 7.3 57 4.3 WSW 28 35 15 19 1016.8 1016.3 0.0
26/03:30pm 15.9 10.9 7.9 59 4.1 WSW 24 35 13 19 1016.6 1016.1 0.0
26/03:00pm 16.0 10.7 8.5 61 3.9 WSW 26 39 14 21 1016.2 1015.7 0.0
26/02:30pm 16.0 9.6 8.5 61 3.9 WSW 32 41 17 22 1016.0 1015.5 0.0
26/02:00pm 15.4 9.0 8.6 64 3.5 WSW 32 43 17 23 1015.8 1015.3 0.0
26/01:30pm 14.7 9.1 8.6 67 3.1 WSW 28 35 15 19 1015.7 1015.2 0.0
26/01:00pm 14.1 8.5 8.7 70 2.8 WSW 28 39 15 21 1015.8 1015.3 0.0
26/12:30pm 14.1 8.5 8.7 70 2.8 SW 28 37 15 20 1015.7 1015.2 0.0
26/12:00pm 13.3 7.8 9.0 75 2.2 WSW 28 37 15 20 1015.9 1015.4 0.0
26/11:30am 12.7 7.1 8.8 77 2.0 WSW 28 35 15 19 1015.9 1015.4 0.0
26/11:00am 12.4 6.8 8.9 79 1.8 WSW 28 37 15 20 1015.9 1015.4 0.0
26/10:30am 12.1 7.3 8.9 81 1.6 WSW 24 32 13 17 1015.9 1015.4 0.0
26/10:00am 11.6 6.4 9.0 84 1.3 SW 26 35 14 19 1015.7 1015.2 0.0
26/09:30am 11.1 7.1 9.0 87 1.1 WSW 20 30 11 16 1015.5 1015.0 0.0
26/09:00am 10.9 6.6 9.2 89 0.9 WSW 22 30 12 16 1015.3 1014.8 0.0
26/08:30am 11.2 6.9 9.5 89 0.9 SW 22 32 12 17 1015.0 1014.5 0.0
26/08:00am 10.8 5.3 9.2 90 0.8 SW 28 35 15 19 1014.6 1014.1 0.0
26/07:30am 10.8 6.6 9.7 93 0.6 SW 22 32 12 17 1014.0 1013.5 0.0
26/07:00am 10.6 5.6 9.7 94 0.5 SW 26 35 14 19 1013.5 1012.9 0.0
26/06:30am 10.5 6.0 10.0 97 0.3 SW 24 30 13 16 1013.2 1012.6 0.0
26/06:00am 10.2 6.1 10.0 99 0.1 SW 22 28 12 15 1012.8 1012.3 0.0
26/05:30am 10.0 6.3 10.0 100 0.0 WSW 20 28 11 15 1012.5 1012.0 0.0
26/05:00am 9.9 5.4 9.9 100 0.0 SW 24 35 13 19 1012.4 1011.9 0.0
26/04:30am 9.6 4.2 9.5 99 0.1 WSW 28 37 15 20 1011.9 1011.4 0.0
26/04:00am 9.6 4.8 9.0 96 0.3 WSW 24 30 13 16 1011.8 1011.3 0.0
26/03:30am 9.4 5.4 8.9 97 0.2 WSW 20 30 11 16 1011.6 1011.1 0.0
26/03:00am 8.8 5.5 7.9 94 0.4 W 15 20 8 11 1011.4 1010.9 0.0
26/02:30am 9.0 5.0 8.1 94 0.4 WSW 19 26 10 14 1011.4 1010.9 0.0
26/02:00am 8.9 5.3 8.5 97 0.2 WSW 17 20 9 11 1011.4 1010.9 0.0
26/01:30am 8.9 4.8 8.8 99 0.0 W 20 26 11 14 1011.5 1011.0 0.0
26/01:00am 9.1 5.1 9.0 99 0.0 WSW 20 32 11 17 1011.5 1011.0 0.0
26/12:30am 9.0 4.6 8.9 99 0.0 WSW 22 28 12 15 1011.4 1010.9 0.0
26/12:00am 9.1 5.1 9.0 99 0.0 WSW 20 26 11 14 1011.6 1011.1 0.0
 
Date/Time
EST
Temp
°C
App
Temp
°C
Dew
Point
Rel
Hum
%
Delta-T
°C
Wind Press
QNH
hPa
Press
MSL
hPa
Rain
since 9 am
mm
Dir
 
Spd
km/h
Gust
km/h
Spd
kts
Gust
kts
25/11:30pm 9.1 5.2 8.5 96 0.3 WSW 19 24 10 13 1011.5 1011.0 0.0
25/11:00pm 9.0 5.3 7.8 92 0.6 WSW 17 20 9 11 1011.4 1010.9 0.0
25/10:30pm 9.1 5.3 7.4 89 0.8 WSW 17 22 9 12 1011.3 1010.8 0.0
25/10:00pm 9.3 5.8 7.4 88 0.9 WSW 15 19 8 10 1011.5 1011.0 0.0
25/09:30pm 9.7 5.8 7.3 85 1.2 WSW 17 20 9 11 1011.1 1010.6 0.0
25/09:00pm 10.0 5.8 7.4 84 1.3 WSW 19 24 10 13 1010.7 1010.2 0.0
25/08:30pm 10.3 6.2 7.7 84 1.3 WSW 19 24 10 13 1010.8 1010.3 0.0
25/08:00pm 10.3 6.6 7.9 85 1.2 SW 17 22 9 12 1010.4 1009.9 0.0
25/07:30pm 10.6 5.9 7.8 83 1.4 WSW 22 32 12 17 1010.0 1009.4 0.0
25/07:00pm 11.0 5.6 7.9 81 1.5 WSW 26 33 14 18 1009.8 1009.2 0.0
25/06:30pm 11.3 5.0 7.6 78 1.8 WSW 30 39 16 21 1009.5 1008.9 0.0
25/06:00pm 11.6 5.7 7.7 77 1.9 WSW 28 39 15 21 1009.2 1008.6 0.0
25/05:30pm 12.2 5.6 7.7 74 2.2 SW 32 44 17 24 1008.5 1008.0 0.0
25/05:00pm 13.0 5.4 7.5 69 2.7 WSW 37 50 20 27 1008.0 1007.5 0.0
25/04:49pm 14.1 8.1 7.2 63 3.4 WSW 28 46 15 25 1007.7 1007.2 0.0
25/04:30pm 15.5 11.4 7.8 60 3.9 SW 19 24 10 13 1007.1 1006.6 0.0
25/04:00pm 15.9 11.0 7.1 56 4.4 WSW 22 28 12 15 1007.0 1006.5 0.0
25/03:30pm 16.8 12.5 8.0 56 4.5 WSW 20 30 11 16 1006.9 1006.4 0.0
25/03:00pm 17.4 13.3 8.8 57 4.5 WSW 20 32 11 17 1006.8 1006.3 0.0
25/02:30pm 17.1 12.8 9.5 61 4.0 WSW 22 30 12 16 1006.7 1006.1 0.0
25/02:00pm 17.5 13.5 8.9 57 4.5 WSW 20 24 11 13 1006.7 1006.1 0.0
25/01:30pm 17.0 13.2 9.2 60 4.1 WSW 19 28 10 15 1006.7 1006.1 0.0
25/01:00pm 17.2 13.2 9.1 59 4.3 WSW 20 24 11 13 1006.9 1006.4 0.0
25/12:30pm 18.3 14.9 9.1 55 4.9 SW 17 26 9 14 1006.9 1006.4 0.0
25/12:00pm 18.2 14.6 8.2 52 5.2 SW 17 26 9 14 1007.3 1006.8 0.0

Other Formats:

Comma delimited format used in spreadsheet applications
http://www.bom.gov.au/fwo/IDN60801/IDN60801.95709.axf

JavaScript Object Notation format (JSON) in row-major order
http://www.bom.gov.au/fwo/IDN60801/IDN60801.95709.json